Hlavní strana
METAR-TAF:

METAR-TAF

Letiště :

Ahmadábád, Indie

zeměpisná šířka: 23-04N, zeměpisná délka: 072-38E, výška: 55 m

Aktuální stav počasí

Zpráva byla vytvořena před 37 minutami, v 16:30 UTC
Bezvětří
Teplota 25°C
Vlhkost vzduchu 39%
Tlak 1012 hPa
Viditelnost: 4000 m
kouř

METAR: VAAH 271630Z 00000KT 4000 FU NSC 25/10 Q1012 NOSIG

Čas: 22:37 (17:07 UTC)

Předpověď počasí

Zpráva byla vytvořena před 3 hodinami a 7 minutami, v 14:00 UTC
Předpověď platná od 27 v 15 UTC do 27 v 24 UTC
Severozápadní vítr 5 kt
Viditelnost: 4000 m
zákal, kouř
Změna
od 27 v 18 UTC do 27 v 20 UTC
Severoseverovýchodní vítr 5 kt

TAF: VAAH 271400Z 2715/2724 32005KT 4000 HZ FU NSC BECMG 2718/2720 03005KT

Stav a předpovědi počasí z více než 4 000 letišť (zprávy METAR a TAF).

Červené a žluté tečky na mapě představují dostupné meteorologické stanice.

Když kurzor umístíte na tečku, zobrazí se název stanice.

Pak kliknutím zobrazíte stav a předpověď počasí.

Chcete-li změnit mapu, kliknutím na zelené tlačítko se znaménkem +mapu přiblížíte, kliknutím na zelené tlačítko se znaménkem – mapu oddálíte a kliknutím na zelené šipky přejdete na sousední mapy.


METAR-TAF: